LVO weather

Leona Vicario Airport
Mexicali, Baja California, Mexico

Public forecast

Using degrees Celsius for public forecast. Weather courtesy of forecast.io.

METAR (pilot weather report)

Closest report is General Rodolfo Sánchez Taboada International Airport, 30.8 nm (57.1 km) N. Retrieved 2019/08/24 16:41 UTC (0 seconds ago):

MMML 241641Z 14010KT 10SM BKN015 32/23 A2992 RMK 8/500

TAF (pilot weather forecast)

Forecast is more than 6 hours old.

Closest forecast is General Rodolfo Sánchez Taboada International Airport, 30.8 nm (57.1 km) N. Retrieved 2019/08/24 06:59 UTC (10 hours ago):

TAF MMML 240452Z 2406/2506 12010KT P6SM SKC FM241800 18012KT P6SM SKC BECMG 2503/2505 20008KT